createdAt,value
2022-11-30T00:01:28.632Z,18.27
2022-11-30T00:06:33.306Z,16.43
2022-11-30T00:11:36.613Z,16.75
2022-11-30T00:16:39.890Z,15.23
2022-11-30T00:21:44.574Z,17.23
2022-11-30T00:26:47.870Z,17.55
2022-11-30T00:31:51.371Z,16.98
2022-11-30T00:36:56.047Z,17.63
2022-11-30T00:41:59.312Z,17.52
2022-11-30T00:47:02.675Z,18.60
2022-11-30T00:52:07.901Z,19.20
2022-11-30T00:57:11.686Z,20.33
2022-11-30T01:02:15.035Z,19.88
2022-11-30T01:07:19.748Z,23.67
2022-11-30T01:12:23.061Z,27.67
2022-11-30T01:17:26.363Z,29.80
2022-11-30T01:22:31.044Z,28.48
2022-11-30T01:27:34.292Z,26.48
2022-11-30T01:32:37.567Z,27.20
2022-11-30T01:37:42.249Z,24.98
2022-11-30T01:42:48.172Z,25.90
2022-11-30T01:47:56.053Z,27.40
2022-11-30T01:53:00.886Z,30.02
2022-11-30T01:58:08.208Z,26.30
2022-11-30T02:03:17.859Z,29.80
2022-11-30T02:08:23.579Z,29.77
2022-11-30T02:13:46.418Z,29.20
2022-11-30T02:19:00.070Z,33.30
2022-11-30T02:24:29.820Z,31.87
2022-11-30T02:29:39.080Z,35.95
2022-11-30T02:34:44.852Z,36.33
2022-11-30T02:39:48.340Z,37.00
2022-11-30T02:44:54.932Z,37.92
2022-11-30T02:50:03.235Z,37.00
2022-11-30T02:55:10.286Z,35.43
2022-11-30T03:00:16.640Z,35.90
2022-11-30T03:05:20.008Z,35.15
2022-11-30T03:10:23.524Z,33.72
2022-11-30T03:15:28.402Z,35.47
2022-11-30T03:20:32.150Z,31.48
2022-11-30T03:25:36.606Z,30.88
2022-11-30T03:30:41.367Z,31.88
2022-11-30T03:35:44.852Z,32.03
2022-11-30T03:40:48.136Z,32.67
2022-11-30T03:45:52.805Z,37.47
2022-11-30T03:50:56.156Z,38.92
2022-11-30T03:56:02.483Z,38.87
2022-11-30T04:01:09.094Z,38.57
2022-11-30T04:06:13.893Z,39.22
2022-11-30T04:11:17.865Z,37.03
2022-11-30T04:16:23.088Z,39.10
2022-11-30T04:21:26.525Z,38.75
2022-11-30T04:26:29.988Z,38.92
2022-11-30T04:31:34.884Z,37.70
2022-11-30T04:36:38.355Z,37.40
2022-11-30T04:41:41.809Z,34.67
2022-11-30T04:46:46.641Z,34.53
2022-11-30T04:51:50.125Z,35.55
2022-11-30T04:56:53.581Z,36.70
2022-11-30T05:01:58.482Z,35.93
2022-11-30T05:07:01.998Z,37.00
2022-11-30T05:12:05.666Z,36.67
2022-11-30T05:17:10.483Z,37.33
2022-11-30T05:22:14.068Z,40.97
2022-11-30T05:27:22.334Z,37.60
2022-11-30T05:32:27.723Z,41.38
2022-11-30T05:37:31.315Z,44.13
2022-11-30T05:42:34.740Z,45.08
2022-11-30T05:47:39.576Z,40.83
2022-11-30T05:52:43.104Z,46.80
2022-11-30T05:57:46.669Z,46.78
2022-11-30T06:02:57.408Z,49.05
2022-11-30T06:08:01.557Z,47.67
2022-11-30T06:13:08.223Z,54.33
2022-11-30T06:18:14.428Z,63.13
2022-11-30T06:23:17.713Z,64.60
2022-11-30T06:28:20.980Z,78.73
2022-11-30T06:33:25.633Z,90.05
2022-11-30T06:38:28.912Z,86.95
2022-11-30T06:43:35.013Z,73.23
2022-11-30T06:48:39.885Z,59.60
2022-11-30T06:53:44.222Z,64.05
2022-11-30T06:58:47.701Z,58.60
2022-11-30T07:03:52.517Z,68.00
2022-11-30T07:08:55.797Z,65.03
2022-11-30T07:13:59.074Z,73.72
2022-11-30T07:19:03.752Z,79.13
2022-11-30T07:24:25.022Z,81.90
2022-11-30T07:29:28.528Z,88.25
2022-11-30T07:34:33.189Z,101.13
2022-11-30T07:39:36.593Z,111.28
2022-11-30T07:44:39.920Z,91.90
2022-11-30T07:49:44.581Z,96.40
2022-11-30T07:54:48.304Z,79.03
2022-11-30T07:59:51.882Z,78.15
2022-11-30T08:04:58.427Z,84.33
2022-11-30T08:10:01.957Z,84.13
2022-11-30T08:15:23.366Z,88.53
2022-11-30T08:20:30.172Z,82.53
2022-11-30T08:25:35.165Z,97.63
2022-11-30T08:30:38.475Z,75.75
2022-11-30T08:35:43.188Z,78.63
2022-11-30T08:40:46.590Z,73.13
2022-11-30T08:45:54.260Z,69.27
2022-11-30T08:51:02.624Z,62.42
2022-11-30T08:56:08.934Z,53.92
2022-11-30T09:01:14.147Z,49.57
2022-11-30T09:06:21.063Z,57.87
2022-11-30T09:11:26.818Z,53.58
2022-11-30T09:16:30.342Z,64.00
2022-11-30T09:21:34.987Z,52.07
2022-11-30T09:26:38.284Z,64.30
2022-11-30T09:31:41.539Z,54.42
2022-11-30T09:36:46.303Z,58.88
2022-11-30T09:42:18.489Z,64.22
2022-11-30T09:47:38.936Z,58.22
2022-11-30T09:52:46.973Z,49.47
2022-11-30T09:57:53.999Z,55.08
2022-11-30T10:03:00.245Z,49.47
2022-11-30T10:08:22.314Z,52.55
2022-11-30T10:13:34.994Z,45.45
2022-11-30T10:18:49.240Z,44.65
2022-11-30T10:24:21.292Z,45.60
2022-11-30T10:29:32.026Z,43.80
2022-11-30T10:34:37.515Z,41.07
2022-11-30T10:39:49.154Z,43.88
2022-11-30T10:45:01.444Z,45.07
2022-11-30T10:50:07.521Z,41.67
2022-11-30T10:55:19.767Z,40.17
2022-11-30T11:00:23.665Z,40.42
2022-11-30T11:05:29.190Z,43.80
2022-11-30T11:10:36.512Z,41.17
2022-11-30T11:15:40.269Z,41.20
2022-11-30T11:20:43.868Z,36.08
2022-11-30T11:25:53.334Z,42.17
2022-11-30T11:30:58.525Z,38.67
2022-11-30T11:36:16.036Z,38.80
2022-11-30T11:41:26.328Z,42.55
2022-11-30T11:46:30.450Z,43.80
2022-11-30T11:51:36.637Z,46.28
2022-11-30T11:56:41.472Z,48.28
2022-11-30T12:01:55.181Z,43.72
2022-11-30T12:07:01.316Z,43.13
2022-11-30T12:12:06.552Z,40.58
2022-11-30T12:17:25.481Z,41.33
2022-11-30T12:22:53.281Z,41.13
2022-11-30T12:28:14.732Z,39.97
2022-11-30T12:33:30.736Z,35.78
2022-11-30T12:38:42.742Z,39.30
2022-11-30T12:43:55.578Z,37.80
2022-11-30T12:49:16.424Z,36.45
2022-11-30T12:54:28.507Z,33.78
2022-11-30T12:59:45.167Z,33.63
2022-11-30T13:04:58.269Z,35.80
2022-11-30T13:10:06.341Z,36.42
2022-11-30T13:15:19.545Z,33.55
2022-11-30T13:20:30.516Z,30.48
2022-11-30T13:26:07.437Z,33.15
2022-11-30T13:31:08.398Z,32.72
2022-11-30T13:36:38.826Z,34.03
2022-11-30T13:41:43.614Z,33.63
2022-11-30T13:46:53.253Z,33.90
2022-11-30T13:52:21.633Z,33.22
2022-11-30T13:58:05.845Z,30.35
2022-11-30T14:03:27.012Z,31.90
2022-11-30T14:08:39.913Z,31.65
2022-11-30T14:13:44.219Z,32.28
2022-11-30T14:18:50.013Z,30.10
2022-11-30T14:23:59.980Z,27.17
2022-11-30T14:29:10.846Z,25.63
2022-11-30T14:34:20.042Z,27.42
2022-11-30T14:39:28.479Z,27.53
2022-11-30T14:44:36.229Z,27.53
2022-11-30T14:49:47.294Z,25.10
2022-11-30T14:54:57.588Z,24.83
2022-11-30T15:00:01.116Z,22.90
2022-11-30T15:05:08.001Z,25.55
2022-11-30T15:10:15.764Z,25.93
2022-11-30T15:15:21.200Z,23.42
2022-11-30T15:20:30.059Z,23.75
2022-11-30T15:25:38.892Z,20.70
2022-11-30T15:30:44.474Z,18.80
2022-11-30T15:36:14.138Z,21.40
2022-11-30T15:41:20.407Z,25.58
2022-11-30T15:46:39.836Z,23.98
2022-11-30T15:52:00.562Z,21.30
2022-11-30T15:57:08.884Z,23.30
2022-11-30T16:02:27.935Z,26.27
2022-11-30T16:07:35.429Z,25.95
2022-11-30T16:12:38.719Z,24.67
2022-11-30T16:17:42.011Z,23.90
2022-11-30T16:22:48.024Z,25.70
2022-11-30T16:27:51.763Z,24.63
2022-11-30T16:32:55.027Z,23.88
2022-11-30T16:37:59.660Z,26.80
2022-11-30T16:43:02.921Z,24.70
2022-11-30T16:48:06.969Z,24.42
2022-11-30T16:53:15.101Z,26.25
2022-11-30T16:58:19.012Z,25.70
2022-11-30T17:03:25.178Z,24.17
2022-11-30T17:08:29.852Z,25.07
2022-11-30T17:13:33.143Z,25.52
2022-11-30T17:18:36.418Z,24.90
2022-11-30T17:23:41.067Z,25.80
2022-11-30T17:28:44.613Z,27.55
2022-11-30T17:33:48.662Z,25.67
2022-11-30T17:38:53.471Z,26.00
2022-11-30T17:43:56.712Z,26.63
2022-11-30T17:48:59.996Z,34.85
2022-11-30T17:54:05.149Z,33.80
2022-11-30T17:59:09.941Z,30.27
2022-11-30T18:04:13.573Z,30.70
2022-11-30T18:09:18.214Z,26.87
2022-11-30T18:14:23.353Z,24.75
2022-11-30T18:19:26.826Z,27.05
2022-11-30T18:24:31.475Z,26.17
2022-11-30T18:29:34.751Z,26.95
2022-11-30T18:34:38.109Z,31.52
2022-11-30T18:39:42.804Z,25.47
2022-11-30T18:44:46.540Z,27.25
2022-11-30T18:49:50.155Z,26.65
2022-11-30T18:54:54.813Z,29.47
2022-11-30T18:59:58.308Z,29.50
2022-11-30T19:05:01.716Z,26.13
2022-11-30T19:10:07.444Z,26.60
2022-11-30T20:05:05.114Z,25.15
2022-11-30T20:10:10.011Z,26.52
2022-11-30T20:15:13.570Z,23.23
2022-11-30T20:20:18.520Z,24.70
2022-11-30T20:25:21.928Z,24.08
2022-11-30T20:30:25.543Z,24.03
2022-11-30T20:35:30.240Z,24.00
2022-11-30T20:40:33.827Z,24.63
2022-11-30T20:45:37.135Z,27.05
2022-11-30T20:50:41.776Z,25.57
2022-11-30T20:55:45.091Z,29.67
2022-11-30T21:00:48.484Z,29.42
2022-11-30T21:05:53.503Z,25.43
2022-11-30T21:10:57.049Z,26.42
2022-11-30T21:16:01.181Z,29.52
2022-11-30T21:21:07.218Z,29.05
2022-11-30T21:26:17.040Z,29.42
2022-11-30T21:31:20.762Z,29.17
2022-11-30T21:36:25.516Z,29.83
2022-11-30T21:41:28.863Z,28.20
2022-11-30T21:46:32.627Z,32.83
2022-11-30T21:51:37.957Z,30.42
2022-11-30T21:56:42.689Z,30.27
2022-11-30T22:01:46.777Z,33.20
2022-11-30T22:06:51.503Z,29.13
2022-11-30T22:11:55.618Z,26.93
2022-11-30T22:16:59.028Z,29.90
2022-11-30T22:22:03.807Z,27.77
2022-11-30T22:27:07.164Z,28.92
2022-11-30T22:32:10.492Z,29.13
2022-11-30T22:37:15.186Z,27.95
2022-11-30T22:42:18.507Z,26.48
2022-11-30T22:47:21.775Z,25.98
2022-11-30T22:52:48.291Z,27.35
2022-11-30T22:57:49.819Z,27.58
2022-11-30T23:02:53.135Z,26.88
2022-11-30T23:07:57.842Z,28.57
2022-11-30T23:13:01.143Z,28.73
2022-11-30T23:18:04.491Z,28.13
2022-11-30T23:23:09.152Z,26.07
2022-11-30T23:28:12.432Z,27.33
2022-11-30T23:33:15.809Z,28.43
2022-11-30T23:38:20.487Z,27.50
2022-11-30T23:43:23.824Z,26.60
2022-11-30T23:48:27.409Z,28.13
2022-11-30T23:53:32.171Z,26.25
2022-11-30T23:58:35.671Z,27.75
